createdAt,value
2019-02-16T00:00:36.863Z,7.43
2019-02-16T00:01:36.858Z,7.33
2019-02-16T00:02:36.849Z,7.39
2019-02-16T00:03:36.837Z,7.36
2019-02-16T00:04:37.514Z,7.39
2019-02-16T00:05:36.818Z,7.18
2019-02-16T00:06:36.811Z,7.14
2019-02-16T00:07:36.791Z,7.15
2019-02-16T00:08:36.788Z,7.21
2019-02-16T00:09:36.788Z,7.10
2019-02-16T00:10:36.768Z,7.18
2019-02-16T00:11:36.765Z,7.02
2019-02-16T00:12:36.753Z,7.07
2019-02-16T00:13:36.736Z,7.05
2019-02-16T00:14:36.725Z,7.10
2019-02-16T00:15:36.714Z,7.10
2019-02-16T00:16:36.705Z,7.07
2019-02-16T00:17:36.692Z,7.07
2019-02-16T00:18:36.687Z,7.11
2019-02-16T00:19:36.677Z,7.06
2019-02-16T00:20:36.664Z,7.13
2019-02-16T00:21:38.522Z,7.11
2019-02-16T00:22:36.651Z,7.10
2019-02-16T00:23:36.630Z,7.14
2019-02-16T00:24:36.624Z,7.14
2019-02-16T00:25:36.610Z,7.20
2019-02-16T00:26:36.599Z,7.20
2019-02-16T00:27:36.601Z,7.20
2019-02-16T00:28:36.583Z,7.14
2019-02-16T00:29:36.570Z,7.07
2019-02-16T00:30:36.567Z,7.11
2019-02-16T00:31:36.546Z,7.10
2019-02-16T00:32:36.542Z,7.07
2019-02-16T00:33:36.544Z,7.06
2019-02-16T00:34:36.516Z,7.03
2019-02-16T00:35:38.029Z,6.99
2019-02-16T00:36:36.494Z,6.89
2019-02-16T00:37:36.488Z,6.85
2019-02-16T00:38:37.229Z,6.92
2019-02-16T00:39:36.469Z,6.84
2019-02-16T00:40:36.456Z,6.78
2019-02-16T00:41:36.445Z,6.81
2019-02-16T00:42:36.439Z,6.70
2019-02-16T00:43:36.423Z,6.75
2019-02-16T00:44:36.414Z,6.60
2019-02-16T00:45:36.425Z,6.78
2019-02-16T00:46:36.395Z,6.69
2019-02-16T00:47:36.383Z,6.64
2019-02-16T00:48:36.374Z,6.69
2019-02-16T00:49:36.359Z,6.70
2019-02-16T00:50:36.367Z,6.75
2019-02-16T00:51:36.366Z,6.62
2019-02-16T00:52:36.333Z,6.67
2019-02-16T00:53:36.318Z,6.69
2019-02-16T00:54:36.316Z,6.69
2019-02-16T00:55:36.295Z,6.60
2019-02-16T00:56:36.285Z,6.72
2019-02-16T00:57:36.283Z,6.69
2019-02-16T00:58:36.273Z,6.77
2019-02-16T00:59:36.256Z,6.81
2019-02-16T01:00:36.255Z,6.82
2019-02-16T01:01:36.237Z,6.79
2019-02-16T01:02:36.233Z,6.81
2019-02-16T01:03:36.218Z,6.84
2019-02-16T01:04:36.219Z,6.77
2019-02-16T01:05:36.200Z,6.77
2019-02-16T01:06:36.196Z,6.77
2019-02-16T01:07:36.176Z,6.79
2019-02-16T01:08:36.161Z,6.79
2019-02-16T01:09:36.157Z,6.70
2019-02-16T01:10:36.151Z,6.75
2019-02-16T01:11:36.138Z,6.69
2019-02-16T01:12:36.132Z,6.77
2019-02-16T01:13:36.110Z,6.74
2019-02-16T01:14:36.102Z,6.84
2019-02-16T01:15:36.092Z,6.81
2019-02-16T01:16:36.093Z,6.77
2019-02-16T01:17:36.071Z,6.78
2019-02-16T01:18:36.069Z,6.78
2019-02-16T01:19:36.051Z,6.74
2019-02-16T01:20:36.052Z,6.78
2019-02-16T01:21:36.031Z,6.72
2019-02-16T01:22:36.021Z,6.74
2019-02-16T01:23:36.005Z,6.67
2019-02-16T01:24:37.551Z,6.64
2019-02-16T01:25:35.987Z,6.69
2019-02-16T01:26:35.973Z,6.63
2019-02-16T01:27:35.960Z,6.48
2019-02-16T01:28:35.960Z,6.46
2019-02-16T01:29:35.948Z,6.33
2019-02-16T01:30:35.946Z,6.39
2019-02-16T01:31:35.920Z,6.39
2019-02-16T01:32:35.917Z,6.41
2019-02-16T01:33:35.902Z,6.30
2019-02-16T01:34:35.898Z,6.17
2019-02-16T01:35:35.879Z,6.17
2019-02-16T01:36:35.863Z,6.17
2019-02-16T01:37:35.861Z,6.16
2019-02-16T01:38:37.535Z,6.11
2019-02-16T01:39:35.841Z,6.27
2019-02-16T01:40:35.839Z,6.24
2019-02-16T01:41:35.814Z,6.24
2019-02-16T01:42:35.806Z,6.27
2019-02-16T01:43:35.800Z,6.30
2019-02-16T01:44:35.796Z,6.26
2019-02-16T01:45:35.774Z,6.14
2019-02-16T01:46:35.773Z,6.08
2019-02-16T01:47:35.755Z,6.11
2019-02-16T01:48:35.734Z,5.98
2019-02-16T01:49:35.730Z,5.99
2019-02-16T01:50:35.733Z,5.83
2019-02-16T01:51:35.709Z,5.89
2019-02-16T01:52:35.701Z,5.89
2019-02-16T01:53:36.549Z,5.86
2019-02-16T01:54:35.674Z,5.79
2019-02-16T01:55:35.668Z,5.89
2019-02-16T01:56:35.676Z,5.86
2019-02-16T01:57:35.645Z,5.80
2019-02-16T01:58:35.636Z,5.73
2019-02-16T01:59:35.628Z,5.71
2019-02-16T02:00:35.609Z,5.71
2019-02-16T02:01:35.603Z,5.69
2019-02-16T02:02:35.610Z,5.66
2019-02-16T02:03:35.578Z,5.64
2019-02-16T02:04:35.570Z,5.57
2019-02-16T02:05:35.567Z,5.57
2019-02-16T02:06:35.545Z,5.54
2019-02-16T02:07:35.541Z,5.64
2019-02-16T02:08:35.525Z,5.54
2019-02-16T02:09:35.522Z,5.47
2019-02-16T02:10:35.509Z,5.39
2019-02-16T02:11:35.507Z,5.46
2019-02-16T02:12:35.482Z,5.47
2019-02-16T02:13:35.480Z,5.53
2019-02-16T02:14:35.484Z,5.53
2019-02-16T02:15:35.461Z,5.51
2019-02-16T02:16:35.444Z,5.61
2019-02-16T02:17:35.441Z,5.61
2019-02-16T02:18:35.423Z,5.57
2019-02-16T02:19:35.417Z,5.57
2019-02-16T02:20:35.401Z,5.54
2019-02-16T02:21:41.247Z,5.59
2019-02-16T02:22:35.379Z,5.61
2019-02-16T02:23:35.371Z,5.57
2019-02-16T02:24:35.352Z,5.47
2019-02-16T02:25:35.359Z,5.41
2019-02-16T02:26:35.337Z,5.51
2019-02-16T02:27:35.333Z,5.46
2019-02-16T02:28:35.311Z,5.35
2019-02-16T02:29:35.302Z,5.36
2019-02-16T02:30:35.291Z,5.28
2019-02-16T02:31:37.442Z,5.28
2019-02-16T02:32:35.270Z,5.29
2019-02-16T02:33:35.258Z,5.26
2019-02-16T02:34:35.254Z,5.21
2019-02-16T02:35:35.230Z,5.23
2019-02-16T02:36:35.224Z,5.23
2019-02-16T02:37:35.221Z,5.29
2019-02-16T02:38:35.211Z,5.21
2019-02-16T02:39:35.196Z,5.26
2019-02-16T02:40:35.187Z,5.32
2019-02-16T02:41:35.169Z,5.15
2019-02-16T02:42:37.056Z,5.21
2019-02-16T02:43:35.165Z,5.11
2019-02-16T02:44:35.148Z,5.11
2019-02-16T02:45:35.132Z,5.15
2019-02-16T02:46:35.126Z,5.07
2019-02-16T02:47:35.117Z,5.11
2019-02-16T02:48:35.100Z,5.12
2019-02-16T02:49:35.087Z,5.14
2019-02-16T02:50:35.085Z,5.18
2019-02-16T02:51:36.562Z,5.14
2019-02-16T02:52:35.052Z,5.10
2019-02-16T02:53:35.047Z,5.08
2019-02-16T02:54:36.577Z,5.00
2019-02-16T02:55:35.022Z,5.00
2019-02-16T02:56:35.033Z,4.97
2019-02-16T02:57:34.996Z,4.93
2019-02-16T02:58:34.979Z,4.94
2019-02-16T02:59:34.979Z,4.94
2019-02-16T03:00:34.975Z,4.87
2019-02-16T03:01:34.952Z,4.87
2019-02-16T03:02:34.946Z,4.80
2019-02-16T03:03:34.936Z,4.78
2019-02-16T03:04:34.921Z,4.80
2019-02-16T03:05:34.914Z,4.75
2019-02-16T03:06:34.917Z,4.82
2019-02-16T03:07:34.885Z,4.82
2019-02-16T03:08:34.876Z,4.89
2019-02-16T03:09:34.873Z,4.77
2019-02-16T03:10:34.856Z,4.82
2019-02-16T03:11:40.848Z,4.84
2019-02-16T03:12:34.832Z,4.86
2019-02-16T03:13:34.828Z,4.87
2019-02-16T03:14:34.820Z,4.87
2019-02-16T03:15:34.796Z,4.78
2019-02-16T03:16:34.786Z,4.90
2019-02-16T03:17:34.791Z,4.89
2019-02-16T03:18:34.773Z,4.93
2019-02-16T03:19:34.770Z,4.89
2019-02-16T03:20:34.748Z,4.92
2019-02-16T03:21:34.732Z,4.78
2019-02-16T03:22:34.730Z,4.87
2019-02-16T03:23:34.725Z,4.84
2019-02-16T03:24:34.708Z,4.75
2019-02-16T03:25:34.692Z,4.78
2019-02-16T03:26:34.683Z,4.74
2019-02-16T03:27:36.567Z,4.77
2019-02-16T03:28:34.656Z,4.75
2019-02-16T03:29:34.653Z,4.77
2019-02-16T03:30:36.575Z,4.63
2019-02-16T03:31:34.644Z,4.63
2019-02-16T03:32:34.618Z,4.70
2019-02-16T03:33:34.603Z,4.56
2019-02-16T03:34:34.599Z,4.55
2019-02-16T03:35:34.579Z,4.60
2019-02-16T03:36:34.574Z,4.59
2019-02-16T03:37:34.561Z,4.66
2019-02-16T03:38:36.071Z,4.66
2019-02-16T03:39:41.085Z,4.63
2019-02-16T03:40:34.524Z,4.66
2019-02-16T03:41:34.518Z,4.71
2019-02-16T03:42:34.510Z,4.70
2019-02-16T03:43:36.085Z,4.66
2019-02-16T03:44:34.477Z,4.70
2019-02-16T03:45:36.081Z,4.70
2019-02-16T03:46:34.465Z,4.71
2019-02-16T03:47:36.069Z,4.59
2019-02-16T03:48:34.438Z,4.74
2019-02-16T03:49:34.428Z,4.68
2019-02-16T03:50:34.412Z,4.60
2019-02-16T03:51:34.407Z,4.63
2019-02-16T03:52:34.406Z,4.74
2019-02-16T03:53:34.380Z,4.73
2019-02-16T03:54:34.373Z,4.73
2019-02-16T03:55:34.363Z,4.74
2019-02-16T03:56:34.344Z,4.78
2019-02-16T03:57:34.336Z,4.82
2019-02-16T03:58:34.327Z,4.66
2019-02-16T03:59:34.318Z,4.60
2019-02-16T04:00:34.305Z,4.55
2019-02-16T04:01:34.286Z,4.56
2019-02-16T04:02:34.287Z,4.52
2019-02-16T04:03:34.271Z,4.50
2019-02-16T04:04:34.263Z,4.58
2019-02-16T04:05:34.261Z,4.53
2019-02-16T04:06:34.237Z,4.52
2019-02-16T04:07:34.227Z,4.45
2019-02-16T04:08:34.213Z,4.41
2019-02-16T04:09:34.211Z,4.44
2019-02-16T04:10:34.189Z,4.50
2019-02-16T04:11:34.177Z,4.45
2019-02-16T04:12:34.171Z,4.48
2019-02-16T04:13:34.154Z,4.45
2019-02-16T04:14:34.150Z,4.45
2019-02-16T04:15:34.149Z,4.44
2019-02-16T04:16:34.130Z,4.45
2019-02-16T04:17:36.080Z,4.55
2019-02-16T04:18:34.129Z,4.59
2019-02-16T04:19:34.088Z,4.66
2019-02-16T04:20:35.577Z,4.66
2019-02-16T04:21:34.074Z,4.71
2019-02-16T04:22:34.060Z,4.71
2019-02-16T04:23:34.051Z,4.78
2019-02-16T04:24:34.046Z,4.78
2019-02-16T04:25:34.025Z,4.87
2019-02-16T04:26:34.019Z,4.93
2019-02-16T04:27:34.003Z,4.93
2019-02-16T04:28:33.991Z,5.07
2019-02-16T04:29:33.982Z,5.02
2019-02-16T04:30:33.971Z,5.14
2019-02-16T04:31:33.961Z,5.10
2019-02-16T04:32:33.952Z,5.15
2019-02-16T04:33:33.936Z,5.26
2019-02-16T04:34:33.927Z,5.20
2019-02-16T04:35:33.920Z,5.20
2019-02-16T04:36:33.909Z,5.14
2019-02-16T04:37:33.892Z,5.20
2019-02-16T04:38:33.895Z,5.12
2019-02-16T04:39:33.870Z,5.17
2019-02-16T04:40:33.867Z,5.18
2019-02-16T04:41:33.855Z,5.26
2019-02-16T04:42:33.839Z,5.11
2019-02-16T04:43:33.829Z,5.11
2019-02-16T04:44:33.814Z,5.07
2019-02-16T04:45:33.814Z,5.04
2019-02-16T04:46:33.795Z,5.08
2019-02-16T04:47:33.775Z,4.92
2019-02-16T04:48:33.789Z,4.96
2019-02-16T04:49:33.759Z,4.96
2019-02-16T04:50:33.745Z,5.00
2019-02-16T04:51:33.735Z,4.99
2019-02-16T04:52:35.119Z,4.97
2019-02-16T04:53:33.719Z,4.94
2019-02-16T04:54:33.708Z,4.94
2019-02-16T04:55:33.705Z,4.96
2019-02-16T04:56:33.680Z,4.92
2019-02-16T04:57:33.675Z,4.97
2019-02-16T04:58:33.668Z,4.94
2019-02-16T04:59:33.647Z,4.97
2019-02-16T05:00:33.639Z,4.89
2019-02-16T05:01:33.628Z,4.90
2019-02-16T05:02:33.621Z,4.84
2019-02-16T05:03:33.603Z,4.78
2019-02-16T05:04:33.590Z,4.82
2019-02-16T05:05:33.585Z,4.80
2019-02-16T05:06:33.585Z,4.75
2019-02-16T05:07:33.560Z,4.70
2019-02-16T05:08:33.561Z,4.68
2019-02-16T05:09:33.537Z,4.67
2019-02-16T05:10:33.527Z,4.66
2019-02-16T05:11:33.518Z,4.66
2019-02-16T05:12:33.512Z,4.63
2019-02-16T05:13:33.491Z,4.66
2019-02-16T05:14:33.484Z,4.71
2019-02-16T05:15:33.473Z,4.67
2019-02-16T05:16:33.459Z,4.70
2019-02-16T05:17:33.456Z,4.63
2019-02-16T05:18:33.448Z,4.66
2019-02-16T05:19:33.427Z,4.56
2019-02-16T05:20:33.420Z,4.50
2019-02-16T05:21:33.408Z,4.49
2019-02-16T05:22:33.393Z,4.45
2019-02-16T05:23:33.382Z,4.40
2019-02-16T05:24:33.369Z,4.45
2019-02-16T05:25:33.365Z,4.34
2019-02-16T05:26:33.355Z,4.19
2019-02-16T05:27:33.348Z,4.19
2019-02-16T05:28:33.324Z,4.10
2019-02-16T05:29:33.331Z,4.13
2019-02-16T05:30:35.111Z,4.19
2019-02-16T05:31:33.292Z,4.14
2019-02-16T05:32:33.281Z,4.17
2019-02-16T05:33:33.263Z,4.08
2019-02-16T05:34:33.256Z,4.08
2019-02-16T05:35:33.281Z,4.05
2019-02-16T05:36:33.240Z,3.98
2019-02-16T05:37:33.227Z,3.92
2019-02-16T05:38:33.225Z,3.91
2019-02-16T05:39:33.203Z,3.88
2019-02-16T05:40:33.202Z,3.87
2019-02-16T05:41:33.204Z,3.91
2019-02-16T05:42:33.170Z,3.92
2019-02-16T05:43:33.158Z,3.87
2019-02-16T05:44:33.152Z,3.88
2019-02-16T05:45:33.131Z,3.88
2019-02-16T05:46:33.130Z,3.86
2019-02-16T05:47:33.113Z,3.77
2019-02-16T05:48:33.102Z,3.78
2019-02-16T05:49:33.094Z,3.80
2019-02-16T05:50:33.078Z,3.74
2019-02-16T05:51:33.069Z,3.81
2019-02-16T05:52:33.063Z,3.81
2019-02-16T05:53:33.048Z,3.78
2019-02-16T05:54:33.034Z,3.78
2019-02-16T05:55:34.631Z,3.74
2019-02-16T05:56:33.004Z,3.77
2019-02-16T05:57:32.996Z,3.78
2019-02-16T05:58:33.006Z,3.77
2019-02-16T05:59:32.989Z,3.78
2019-02-16T06:00:32.965Z,3.76
2019-02-16T06:01:32.946Z,3.69
2019-02-16T06:02:32.940Z,3.63
2019-02-16T06:03:32.934Z,3.69
2019-02-16T06:04:32.917Z,3.69
2019-02-16T06:05:32.916Z,3.66
2019-02-16T06:06:32.899Z,3.59
2019-02-16T06:07:32.903Z,3.66
2019-02-16T06:08:32.870Z,3.62
2019-02-16T06:09:32.873Z,3.65
2019-02-16T06:10:32.850Z,3.74
2019-02-16T06:11:32.839Z,3.62
2019-02-16T06:12:32.830Z,3.48
2019-02-16T06:13:32.811Z,3.59
2019-02-16T06:14:32.808Z,3.55
2019-02-16T06:15:32.800Z,3.56
2019-02-16T06:16:32.787Z,3.40
2019-02-16T06:17:32.772Z,3.48
2019-02-16T06:18:32.754Z,3.42
2019-02-16T06:19:32.746Z,3.48
2019-02-16T06:20:32.739Z,3.50
2019-02-16T06:21:32.750Z,3.56
2019-02-16T06:22:32.769Z,3.37
2019-02-16T06:23:34.617Z,3.40
2019-02-16T06:24:32.716Z,3.48
2019-02-16T06:25:32.710Z,3.34
2019-02-16T06:26:32.680Z,3.40
2019-02-16T06:27:32.656Z,3.31
2019-02-16T06:28:32.644Z,3.32
2019-02-16T06:29:32.638Z,3.36
2019-02-16T06:30:32.619Z,3.34
2019-02-16T06:31:32.610Z,3.31
2019-02-16T06:32:32.635Z,3.32
2019-02-16T06:33:32.584Z,3.36
2019-02-16T06:34:34.127Z,3.34
2019-02-16T06:35:32.581Z,3.28
2019-02-16T06:36:32.592Z,3.28
2019-02-16T06:37:32.588Z,3.13
2019-02-16T06:38:32.532Z,3.26
2019-02-16T06:39:32.516Z,3.28
2019-02-16T06:40:32.506Z,3.31
2019-02-16T06:41:34.121Z,3.14
2019-02-16T06:42:32.485Z,3.22
2019-02-16T06:43:32.480Z,3.22
2019-02-16T06:44:32.463Z,3.23
2019-02-16T06:45:32.446Z,3.28
2019-02-16T06:46:32.440Z,3.29
2019-02-16T06:47:32.425Z,3.34
2019-02-16T06:48:32.421Z,3.36
2019-02-16T06:49:32.401Z,3.29
2019-02-16T06:50:36.865Z,3.36
2019-02-16T06:51:32.378Z,3.36
2019-02-16T06:52:32.362Z,3.29
2019-02-16T06:53:32.363Z,3.23
2019-02-16T06:54:32.355Z,3.29
2019-02-16T06:55:32.333Z,3.29
2019-02-16T06:56:32.321Z,3.36
2019-02-16T06:57:32.327Z,3.31
2019-02-16T06:58:32.307Z,3.31
2019-02-16T06:59:32.301Z,3.28
2019-02-16T07:00:32.277Z,3.29
2019-02-16T07:01:33.206Z,3.32
2019-02-16T07:02:32.252Z,3.29
2019-02-16T07:03:32.237Z,3.40
2019-02-16T07:04:32.232Z,3.29
2019-02-16T07:05:32.234Z,3.31
2019-02-16T07:06:32.218Z,3.29
2019-02-16T07:07:32.195Z,3.42
2019-02-16T07:08:32.186Z,3.37
2019-02-16T07:09:32.168Z,3.41
2019-02-16T07:10:32.174Z,3.42
2019-02-16T07:11:32.162Z,3.40
2019-02-16T07:12:32.138Z,3.47
2019-02-16T07:13:32.126Z,3.47
2019-02-16T07:14:32.106Z,3.56
2019-02-16T07:15:32.104Z,3.53
2019-02-16T07:16:32.098Z,3.68
2019-02-16T07:17:32.079Z,3.65
2019-02-16T07:18:32.083Z,3.69
2019-02-16T07:19:32.057Z,3.76
2019-02-16T07:20:32.039Z,3.81
2019-02-16T07:21:32.033Z,3.76
2019-02-16T07:22:32.034Z,3.77
2019-02-16T07:23:32.636Z,3.81
2019-02-16T07:24:31.998Z,3.77
2019-02-16T07:25:31.998Z,3.70
2019-02-16T07:26:31.979Z,3.88
2019-02-16T07:27:31.965Z,3.92
2019-02-16T07:28:31.951Z,3.95
2019-02-16T07:29:31.946Z,4.10
2019-02-16T07:30:31.934Z,4.16
2019-02-16T07:31:31.922Z,4.23
2019-02-16T07:32:31.912Z,4.38
2019-02-16T07:33:31.897Z,4.38
2019-02-16T07:34:31.891Z,4.37
2019-02-16T07:35:31.892Z,4.48
2019-02-16T07:36:31.869Z,4.55
2019-02-16T07:37:31.855Z,4.55
2019-02-16T07:38:31.845Z,4.55
2019-02-16T07:39:31.841Z,4.63
2019-02-16T07:40:31.822Z,4.60
2019-02-16T07:41:31.820Z,4.66
2019-02-16T07:42:31.801Z,4.70
2019-02-16T07:43:31.784Z,4.77
2019-02-16T07:44:31.780Z,4.82
2019-02-16T07:45:31.784Z,4.78
2019-02-16T07:46:31.763Z,4.97
2019-02-16T07:47:31.751Z,4.99
2019-02-16T07:48:31.737Z,5.07
2019-02-16T07:49:31.721Z,5.08
2019-02-16T07:50:31.718Z,5.08
2019-02-16T07:51:31.718Z,5.14
2019-02-16T07:52:31.690Z,5.11
2019-02-16T07:53:31.765Z,5.14
2019-02-16T07:54:31.674Z,5.07
2019-02-16T07:55:31.659Z,5.17
2019-02-16T07:56:32.645Z,5.05
2019-02-16T07:57:31.656Z,5.23
2019-02-16T07:58:31.628Z,5.07
2019-02-16T07:59:31.619Z,5.12
2019-02-16T08:00:31.611Z,5.11
2019-02-16T08:01:31.591Z,5.17
2019-02-16T08:02:31.591Z,5.18
2019-02-16T08:05:23.712Z,5.25
